Nicholasville, KY (40340)

10:42 PM EDT del 22 Maggio 2015 (GMT -0400)
Belleau Wood/Veteran's Park | | Change Station
CLOSE
Current Station
Stazione meteo personale
Location: Lexington, KY
Altitudine: 978 ft
Stazioni meteo nelle vicinanze

Alt. 978 ft 37.97 °N, 84.51 °W | Updated 4 seconds ago

Parzialmente nuvoloso
Parzialmente nuvoloso
60.0 °F
Sembra 60.0 °F
N
0.0
Vento Variabile Vento da SO
Gusts 0.0 mph

Oggi
Massima -- | Minima -- °F
--% Possibilità di precip.
Ieri
Massima -- | Minima -- °F
Precip. -- in
6:23 AM 8:47 PM
Luna crescente, 26% visible
Pressione 30.27 in
Visibilità 10.0 miglia
Nuvole Sereno
Punto di rugiada 50 °F
Umidità 69%
Piovosità 0.00 in
Spessore del manto nevoso Non disponibile.
Raggi UV 0 fuori da 12
Polline 8.50 fuori da 12
Qualità dell'aria Non disponibile.
Flu Activity Sporadic
METAR KLEX 230154Z 18003KT 10SM CLR 16/08 A3028 RMK AO2 SLP250 T01610083

More Conditions Fewer Conditions

Pressione 30.27 in
Visibilità 10.0 miglia
Nuvole Sereno
Punto di rugiada 50 °F
Umidità 69%
Piovosità 0.00 in
Spessore del manto nevoso Non disponibile.
Raggi UV 0 fuori da 12
Polline 8.50 fuori da 12
Qualità dell'aria Non disponibile.
Flu Activity Sporadic
METAR KLEX 230154Z 18003KT 10SM CLR 16/08 A3028 RMK AO2 SLP250 T01610083

More Conditions Fewer Conditions

10-Day Weather Forecast

Almanac

Astronomia

May. 22, 2015 Alba Tramonto
Ora attuale
Crepuscolo civile
Crepuscolo nautico
Crepuscolo astronomico
Luna
Estensione della luce visibile
Lunghezza del giorno
Tomorrow will be .
, % of the Moon is Illuminated

Gli estremi di oggi

State Highs State Lows

Community

WunderPhotos

Upload Photos

1,823,371 foto caricate!

WunderBlogs® & News

Nearby

Qualità dell'aria

  Qualità dell'aria Indice AQ Inquinante
Not available.

Profondità neve

Stazione Profondità Altitudine

Attività sismica

Città  Distanza Mag. Data & Ora
Minimo Magnitudo Mostrato è 2.5.

Temperature delle acque costiere

Località Temperatura

Stations

Stazioni meteo nelle vicinanze

Ubicazione della stazione Temp. Raffreddamento del vento Punto di rugiada Umidità Vento Precip. Alt. Aggiornato Tipo